Grayson, Georgia
Current Conditions -  °F | °C
As of 6:45 PM on Monday 22 Dec 2014 (Local Time) from KLZU Reporting Station
Haze Haze  
Wind Chill: 37°   Ceiling: 500
Heat Index: 43°   Visibility: 5mi
Dew Point: 36°   Wind: 12mph
Humidity: 76%   Direction: 80°E
Pressure: 29.93"   Gusts: NA
Location:  33.89°N, 83.96°W
Report Text: KLZU 222345Z 08010KT 5SM BR OVC005 06/02 A2993 RMK ATIS E RWY 25 YA
Loading
Personal Weather Stations






























Interactive Weather Map New forecast layout! Learn more

10-Day Weather Forecast

Advertisements
Track Severe Weather on mobile